SWA1045 KELP-KDAL
Flight info
| Callsign | SWA1045 |
|---|---|
| Flight time | 1h 15m |
| Altitude | 39000 |
| Route | TDOWN3 SFL INK MAF BGTOE BACHR4 |
| Aircraft | B738/M-SADE2E3GIJ4RWZ/LB1D1 |
Departure
| Time | 2026-04-26 18:04 |
|---|---|
| Airport | El Paso International Airport (KELP) |
Arrival
| Time | 2026-04-26 19:19 |
|---|---|
| Airport | Dallas Love Field (KDAL) |
| Time | Latitude | Longitude | Altitude | Speed | Heading |
|---|---|---|---|---|---|
| 2026-04-26 17:41 | 31.80061 | -106.39421 | 3946 ft | 0 kts | 170° |
| 2026-04-26 17:54 | 31.80063 | -106.39421 | 3946 ft | 2 kts | 170° |
| 2026-04-26 17:55 | 31.80079 | -106.39425 | 3946 ft | 2 kts | 171° |
| 2026-04-26 17:55 | 31.80095 | -106.39427 | 3946 ft | 2 kts | 171° |
| 2026-04-26 17:55 | 31.80111 | -106.39430 | 3946 ft | 2 kts | 164° |
| 2026-04-26 17:55 | 31.80125 | -106.39439 | 3946 ft | 2 kts | 108° |
| 2026-04-26 17:56 | 31.80127 | -106.39449 | 3946 ft | 1 kts | 81° |
| 2026-04-26 17:56 | 31.80127 | -106.39451 | 3946 ft | 0 kts | 81° |
| 2026-04-26 17:57 | 31.80205 | -106.39352 | 3946 ft | 14 kts | 40° |
| 2026-04-26 17:57 | 31.80275 | -106.39276 | 3946 ft | 13 kts | 43° |
| 2026-04-26 17:57 | 31.80351 | -106.39192 | 3946 ft | 17 kts | 43° |
| 2026-04-26 17:57 | 31.80455 | -106.39077 | 3946 ft | 24 kts | 43° |
| 2026-04-26 17:58 | 31.80843 | -106.38650 | 3946 ft | 24 kts | 47° |
| 2026-04-26 17:59 | 31.81045 | -106.38367 | 3946 ft | 22 kts | 50° |
| 2026-04-26 17:59 | 31.81142 | -106.38231 | 3946 ft | 21 kts | 50° |
| 2026-04-26 17:59 | 31.81236 | -106.38099 | 3946 ft | 21 kts | 50° |
| 2026-04-26 17:59 | 31.81326 | -106.37971 | 3946 ft | 20 kts | 50° |
| 2026-04-26 18:00 | 31.81387 | -106.37890 | 3945 ft | 20 kts | 49° |
| 2026-04-26 18:00 | 31.81475 | -106.37768 | 3946 ft | 19 kts | 50° |
| 2026-04-26 18:00 | 31.81560 | -106.37649 | 3946 ft | 19 kts | 49° |
| 2026-04-26 18:00 | 31.81649 | -106.37527 | 3946 ft | 22 kts | 50° |
| 2026-04-26 18:01 | 31.81762 | -106.37366 | 3946 ft | 29 kts | 50° |
| 2026-04-26 18:01 | 31.81889 | -106.37192 | 3945 ft | 24 kts | 50° |
| 2026-04-26 18:01 | 31.81989 | -106.37052 | 3945 ft | 19 kts | 50° |
| 2026-04-26 18:01 | 31.82068 | -106.36944 | 3945 ft | 13 kts | 47° |
| 2026-04-26 18:02 | 31.82121 | -106.36907 | 3945 ft | 9 kts | 359° |
| 2026-04-26 18:02 | 31.82158 | -106.36927 | 3945 ft | 9 kts | 324° |
| 2026-04-26 18:02 | 31.82232 | -106.36995 | 3945 ft | 11 kts | 322° |
| 2026-04-26 18:02 | 31.82253 | -106.37062 | 3945 ft | 10 kts | 236° |
| 2026-04-26 18:03 | 31.82100 | -106.37274 | 3944 ft | 62 kts | 230° |
| 2026-04-26 18:03 | 31.81713 | -106.37814 | 3947 ft | 109 kts | 229° |
| 2026-04-26 18:03 | 31.81140 | -106.38608 | 3951 ft | 145 kts | 227° |
| 2026-04-26 18:03 | 31.80449 | -106.39550 | 4330 ft | 151 kts | 227° |
| 2026-04-26 18:04 | 31.79670 | -106.40382 | 4735 ft | 160 kts | 212° |
| 2026-04-26 18:04 | 31.78579 | -106.40962 | 4847 ft | 186 kts | 198° |
| 2026-04-26 18:04 | 31.77226 | -106.41120 | 4971 ft | 210 kts | 178° |
| 2026-04-26 18:05 | 31.74520 | -106.39073 | 5352 ft | 265 kts | 124° |
| 2026-04-26 18:05 | 31.73774 | -106.37082 | 5814 ft | 279 kts | 114° |
| 2026-04-26 18:05 | 31.73098 | -106.34864 | 6212 ft | 294 kts | 113° |
| 2026-04-26 18:05 | 31.72421 | -106.32556 | 6706 ft | 304 kts | 111° |
| 2026-04-26 18:06 | 31.72170 | -106.30083 | 7487 ft | 307 kts | 90° |
| 2026-04-26 18:06 | 31.72269 | -106.27548 | 8166 ft | 312 kts | 89° |
| 2026-04-26 18:06 | 31.72375 | -106.24967 | 8804 ft | 319 kts | 88° |
| 2026-04-26 18:06 | 31.72936 | -106.22424 | 9453 ft | 327 kts | 62° |
| 2026-04-26 18:07 | 31.74108 | -106.20124 | 10158 ft | 331 kts | 56° |
| 2026-04-26 18:07 | 31.75372 | -106.17774 | 10408 ft | 353 kts | 57° |
| 2026-04-26 18:07 | 31.76715 | -106.15242 | 10586 ft | 375 kts | 57° |
| 2026-04-26 18:07 | 31.77632 | -106.13489 | 10847 ft | 384 kts | 57° |
| 2026-04-26 18:08 | 31.78938 | -106.09595 | 11608 ft | 393 kts | 84° |
| 2026-04-26 18:08 | 31.79030 | -106.06400 | 12368 ft | 392 kts | 93° |
| 2026-04-26 18:08 | 31.78975 | -106.03159 | 12972 ft | 400 kts | 94° |
| 2026-04-26 18:08 | 31.78893 | -105.99858 | 13609 ft | 406 kts | 94° |
| 2026-04-26 18:09 | 31.78815 | -105.96521 | 14231 ft | 410 kts | 94° |
| 2026-04-26 18:09 | 31.78750 | -105.93146 | 14887 ft | 416 kts | 94° |
| 2026-04-26 18:09 | 31.78696 | -105.89733 | 15566 ft | 420 kts | 94° |
| 2026-04-26 18:09 | 31.78648 | -105.86282 | 16244 ft | 424 kts | 94° |
| 2026-04-26 18:10 | 31.78603 | -105.82790 | 16877 ft | 430 kts | 94° |
| 2026-04-26 18:10 | 31.78557 | -105.79296 | 17482 ft | 435 kts | 94° |
| 2026-04-26 18:10 | 31.78509 | -105.75703 | 18111 ft | 440 kts | 94° |
| 2026-04-26 18:10 | 31.78459 | -105.72092 | 18691 ft | 444 kts | 94° |
| 2026-04-26 18:11 | 31.78398 | -105.68453 | 19288 ft | 447 kts | 95° |
| 2026-04-26 18:11 | 31.78236 | -105.64791 | 19868 ft | 449 kts | 97° |
| 2026-04-26 18:11 | 31.78008 | -105.61108 | 20442 ft | 452 kts | 98° |
| 2026-04-26 18:11 | 31.77762 | -105.57422 | 21048 ft | 454 kts | 98° |
| 2026-04-26 18:12 | 31.77520 | -105.53757 | 21591 ft | 458 kts | 98° |
| 2026-04-26 18:12 | 31.77283 | -105.50007 | 22114 ft | 462 kts | 98° |
| 2026-04-26 18:12 | 31.77051 | -105.46212 | 22654 ft | 466 kts | 98° |
| 2026-04-26 18:12 | 31.76824 | -105.42395 | 23171 ft | 470 kts | 97° |
| 2026-04-26 18:13 | 31.76597 | -105.38550 | 23631 ft | 473 kts | 97° |
| 2026-04-26 18:13 | 31.76369 | -105.34679 | 24066 ft | 476 kts | 97° |
| 2026-04-26 18:13 | 31.76138 | -105.30784 | 24494 ft | 479 kts | 97° |
| 2026-04-26 18:13 | 31.75983 | -105.28190 | 24769 ft | 481 kts | 98° |
| 2026-04-26 18:14 | 31.75666 | -105.22924 | 25346 ft | 485 kts | 98° |
| 2026-04-26 18:14 | 31.75426 | -105.18961 | 25762 ft | 488 kts | 98° |
| 2026-04-26 18:14 | 31.75184 | -105.14973 | 26159 ft | 491 kts | 98° |
| 2026-04-26 18:14 | 31.74938 | -105.10955 | 26547 ft | 494 kts | 98° |
| 2026-04-26 18:15 | 31.74774 | -105.06902 | 26934 ft | 500 kts | 92° |
| 2026-04-26 18:15 | 31.74953 | -105.02808 | 27315 ft | 504 kts | 88° |
| 2026-04-26 18:15 | 31.75285 | -104.98746 | 27683 ft | 508 kts | 86° |
| 2026-04-26 18:15 | 31.75679 | -104.94615 | 28046 ft | 511 kts | 85° |
| 2026-04-26 18:16 | 31.76076 | -104.90445 | 28396 ft | 513 kts | 85° |
| 2026-04-26 18:16 | 31.76798 | -104.82090 | 29279 ft | 515 kts | 86° |
| 2026-04-26 18:16 | 31.77125 | -104.77880 | 29568 ft | 519 kts | 87° |
| 2026-04-26 18:17 | 31.77439 | -104.73634 | 29858 ft | 522 kts | 87° |
| 2026-04-26 18:17 | 31.77744 | -104.69422 | 30123 ft | 525 kts | 87° |
| 2026-04-26 18:17 | 31.78051 | -104.65140 | 30390 ft | 527 kts | 87° |
| 2026-04-26 18:17 | 31.78359 | -104.60845 | 30718 ft | 528 kts | 87° |
| 2026-04-26 18:18 | 31.78668 | -104.56533 | 31083 ft | 528 kts | 87° |
| 2026-04-26 18:18 | 31.78977 | -104.52223 | 31409 ft | 529 kts | 87° |
| 2026-04-26 18:18 | 31.79285 | -104.47911 | 31696 ft | 530 kts | 87° |
| 2026-04-26 18:18 | 31.79593 | -104.43582 | 32002 ft | 531 kts | 87° |
| 2026-04-26 18:19 | 31.79901 | -104.39243 | 32332 ft | 532 kts | 87° |
| 2026-04-26 18:19 | 31.80207 | -104.34913 | 32629 ft | 532 kts | 87° |
| 2026-04-26 18:19 | 31.80508 | -104.30634 | 32902 ft | 534 kts | 87° |
| 2026-04-26 18:19 | 31.80813 | -104.26262 | 33178 ft | 535 kts | 87° |
| 2026-04-26 18:20 | 31.81117 | -104.21886 | 33454 ft | 537 kts | 87° |
| 2026-04-26 18:20 | 31.81420 | -104.17508 | 33762 ft | 537 kts | 87° |
| 2026-04-26 18:20 | 31.81721 | -104.13126 | 34008 ft | 539 kts | 87° |
| 2026-04-26 18:20 | 31.81920 | -104.10230 | 34146 ft | 540 kts | 87° |
| 2026-04-26 18:21 | 31.82323 | -104.04321 | 34482 ft | 540 kts | 87° |
| 2026-04-26 18:21 | 31.82622 | -103.99911 | 34738 ft | 541 kts | 87° |
| 2026-04-26 18:21 | 31.82919 | -103.95497 | 34969 ft | 542 kts | 87° |
| 2026-04-26 18:21 | 31.83216 | -103.91065 | 35200 ft | 543 kts | 87° |
| 2026-04-26 18:22 | 31.83511 | -103.86643 | 35447 ft | 543 kts | 87° |
| 2026-04-26 18:22 | 31.83802 | -103.82271 | 35665 ft | 544 kts | 86° |
| 2026-04-26 18:22 | 31.84096 | -103.77817 | 35887 ft | 545 kts | 86° |
| 2026-04-26 18:22 | 31.84388 | -103.73366 | 36131 ft | 546 kts | 86° |
| 2026-04-26 18:23 | 31.84679 | -103.68907 | 36367 ft | 546 kts | 86° |
| 2026-04-26 18:23 | 31.84969 | -103.64452 | 36588 ft | 547 kts | 86° |
| 2026-04-26 18:23 | 31.85257 | -103.59993 | 36815 ft | 548 kts | 86° |
| 2026-04-26 18:23 | 31.85544 | -103.55517 | 37030 ft | 548 kts | 86° |
| 2026-04-26 18:24 | 31.85830 | -103.51046 | 37246 ft | 549 kts | 86° |
| 2026-04-26 18:24 | 31.86115 | -103.46565 | 37468 ft | 549 kts | 86° |
| 2026-04-26 18:24 | 31.86398 | -103.42084 | 37666 ft | 550 kts | 86° |
| 2026-04-26 18:24 | 31.86680 | -103.37593 | 37874 ft | 551 kts | 86° |
| 2026-04-26 18:25 | 31.86962 | -103.33091 | 38106 ft | 550 kts | 86° |
| 2026-04-26 18:25 | 31.87241 | -103.28605 | 38333 ft | 550 kts | 86° |
| 2026-04-26 18:25 | 31.87525 | -103.24115 | 38499 ft | 551 kts | 85° |
| 2026-04-26 18:25 | 31.87962 | -103.19631 | 38655 ft | 551 kts | 82° |
| 2026-04-26 18:26 | 31.89155 | -103.10730 | 38730 ft | 555 kts | 79° |
| 2026-04-26 18:26 | 31.90428 | -103.01774 | 38743 ft | 553 kts | 80° |
| 2026-04-26 18:27 | 31.91617 | -102.92881 | 38736 ft | 547 kts | 81° |
| 2026-04-26 18:27 | 31.92749 | -102.84037 | 38743 ft | 545 kts | 81° |
| 2026-04-26 18:28 | 31.93869 | -102.75213 | 38727 ft | 544 kts | 81° |
| 2026-04-26 18:28 | 31.94977 | -102.66466 | 38744 ft | 543 kts | 81° |
| 2026-04-26 18:29 | 31.96089 | -102.57674 | 38771 ft | 543 kts | 81° |
| 2026-04-26 18:29 | 31.97198 | -102.48850 | 38812 ft | 544 kts | 81° |
| 2026-04-26 18:30 | 31.98302 | -102.40008 | 38841 ft | 546 kts | 81° |
| 2026-04-26 18:30 | 31.99395 | -102.31205 | 38886 ft | 548 kts | 81° |
| 2026-04-26 18:31 | 32.00495 | -102.22305 | 38896 ft | 549 kts | 81° |
| 2026-04-26 18:31 | 32.01504 | -102.13365 | 38889 ft | 551 kts | 84° |
| 2026-04-26 18:32 | 32.02227 | -102.04371 | 38890 ft | 552 kts | 85° |
| 2026-04-26 18:32 | 32.02903 | -101.95355 | 38871 ft | 552 kts | 85° |
| 2026-04-26 18:33 | 32.03617 | -101.86349 | 38822 ft | 552 kts | 84° |
| 2026-04-26 18:33 | 32.04351 | -101.77395 | 38775 ft | 550 kts | 84° |
| 2026-04-26 18:34 | 32.05081 | -101.68469 | 38807 ft | 549 kts | 84° |
| 2026-04-26 18:34 | 32.05804 | -101.59498 | 38830 ft | 548 kts | 84° |
| 2026-04-26 18:35 | 32.06517 | -101.50555 | 38840 ft | 547 kts | 84° |
| 2026-04-26 18:35 | 32.07221 | -101.41628 | 38832 ft | 546 kts | 84° |
| 2026-04-26 18:36 | 32.07919 | -101.32716 | 38810 ft | 545 kts | 84° |
| 2026-04-26 18:36 | 32.08604 | -101.23874 | 38734 ft | 544 kts | 84° |
| 2026-04-26 18:37 | 32.09287 | -101.14980 | 38736 ft | 544 kts | 84° |
| 2026-04-26 18:37 | 32.09966 | -101.06067 | 38738 ft | 544 kts | 84° |
| 2026-04-26 18:38 | 32.10638 | -100.97161 | 38736 ft | 545 kts | 84° |
| 2026-04-26 18:38 | 32.11300 | -100.88296 | 38737 ft | 546 kts | 84° |
| 2026-04-26 18:39 | 32.11960 | -100.79368 | 38739 ft | 547 kts | 84° |
| 2026-04-26 18:39 | 32.12616 | -100.70425 | 38741 ft | 548 kts | 84° |
| 2026-04-26 18:40 | 32.13267 | -100.61443 | 38740 ft | 548 kts | 84° |
| 2026-04-26 18:40 | 32.13912 | -100.52470 | 38744 ft | 549 kts | 84° |
| 2026-04-26 18:41 | 32.14551 | -100.43483 | 38737 ft | 549 kts | 84° |
| 2026-04-26 18:41 | 32.15180 | -100.34554 | 38743 ft | 549 kts | 84° |
| 2026-04-26 18:42 | 32.15806 | -100.25571 | 38747 ft | 548 kts | 84° |
| 2026-04-26 18:42 | 32.16425 | -100.16591 | 38742 ft | 548 kts | 84° |
| 2026-04-26 18:43 | 32.17037 | -100.07629 | 38748 ft | 547 kts | 84° |
| 2026-04-26 18:43 | 32.17638 | -99.98730 | 38748 ft | 546 kts | 84° |
| 2026-04-26 18:44 | 32.18237 | -99.89788 | 38759 ft | 546 kts | 84° |
| 2026-04-26 18:44 | 32.18745 | -99.80841 | 38768 ft | 545 kts | 88° |
| 2026-04-26 18:45 | 32.18672 | -99.71949 | 38773 ft | 545 kts | 92° |
| 2026-04-26 18:45 | 32.18437 | -99.63006 | 38773 ft | 545 kts | 91° |
| 2026-04-26 18:46 | 32.18274 | -99.54034 | 38307 ft | 551 kts | 91° |
| 2026-04-26 18:46 | 32.18217 | -99.49515 | 37755 ft | 549 kts | 91° |
| 2026-04-26 18:46 | 32.18167 | -99.45018 | 37192 ft | 548 kts | 91° |
| 2026-04-26 18:47 | 32.18118 | -99.40527 | 36635 ft | 546 kts | 91° |
| 2026-04-26 18:47 | 32.18067 | -99.36041 | 36080 ft | 545 kts | 91° |
| 2026-04-26 18:47 | 32.18012 | -99.31573 | 35516 ft | 544 kts | 91° |
| 2026-04-26 18:47 | 32.17953 | -99.27104 | 34904 ft | 544 kts | 91° |
| 2026-04-26 18:48 | 32.17893 | -99.22679 | 34298 ft | 544 kts | 91° |
| 2026-04-26 18:48 | 32.17829 | -99.18217 | 33604 ft | 541 kts | 91° |
| 2026-04-26 18:48 | 32.17766 | -99.13807 | 32870 ft | 533 kts | 92° |
| 2026-04-26 18:48 | 32.17723 | -99.10911 | 32409 ft | 529 kts | 92° |
| 2026-04-26 18:49 | 32.17658 | -99.06573 | 31747 ft | 529 kts | 92° |
| 2026-04-26 18:49 | 32.17591 | -99.02227 | 31056 ft | 529 kts | 92° |
| 2026-04-26 18:49 | 32.17522 | -98.97876 | 30351 ft | 530 kts | 93° |
| 2026-04-26 18:49 | 32.17429 | -98.92099 | 29369 ft | 530 kts | 93° |
| 2026-04-26 18:50 | 32.17381 | -98.89164 | 28982 ft | 525 kts | 93° |
| 2026-04-26 18:50 | 32.17311 | -98.84932 | 28412 ft | 520 kts | 93° |
| 2026-04-26 18:50 | 32.17239 | -98.80676 | 27859 ft | 515 kts | 93° |
| 2026-04-26 18:50 | 32.17166 | -98.76470 | 27315 ft | 510 kts | 92° |
| 2026-04-26 18:51 | 32.17199 | -98.72300 | 26768 ft | 506 kts | 87° |
| 2026-04-26 18:51 | 32.17525 | -98.68180 | 26242 ft | 502 kts | 83° |
| 2026-04-26 18:51 | 32.17970 | -98.64112 | 25704 ft | 498 kts | 82° |
| 2026-04-26 18:51 | 32.18421 | -98.60078 | 25171 ft | 493 kts | 82° |
| 2026-04-26 18:52 | 32.18830 | -98.56084 | 24633 ft | 485 kts | 83° |
| 2026-04-26 18:52 | 32.19191 | -98.52176 | 24138 ft | 472 kts | 83° |
| 2026-04-26 18:52 | 32.19522 | -98.48395 | 23969 ft | 458 kts | 83° |
| 2026-04-26 18:52 | 32.19847 | -98.44648 | 23610 ft | 460 kts | 83° |
| 2026-04-26 18:53 | 32.20176 | -98.40897 | 23031 ft | 455 kts | 83° |
| 2026-04-26 18:53 | 32.20501 | -98.37203 | 22475 ft | 445 kts | 83° |
| 2026-04-26 18:53 | 32.20822 | -98.33576 | 21967 ft | 443 kts | 84° |
| 2026-04-26 18:53 | 32.21140 | -98.29965 | 21468 ft | 442 kts | 84° |
| 2026-04-26 18:54 | 32.21452 | -98.26409 | 20972 ft | 439 kts | 84° |
| 2026-04-26 18:54 | 32.21763 | -98.22849 | 20463 ft | 433 kts | 84° |
| 2026-04-26 18:54 | 32.22071 | -98.19307 | 19978 ft | 432 kts | 84° |
| 2026-04-26 18:54 | 32.22376 | -98.15782 | 19486 ft | 429 kts | 84° |
| 2026-04-26 18:55 | 32.22675 | -98.12316 | 18988 ft | 419 kts | 84° |
| 2026-04-26 18:55 | 32.22969 | -98.08900 | 18513 ft | 418 kts | 85° |
| 2026-04-26 18:55 | 32.23262 | -98.05485 | 17997 ft | 415 kts | 85° |
| 2026-04-26 18:55 | 32.23550 | -98.02121 | 17493 ft | 407 kts | 85° |
| 2026-04-26 18:56 | 32.23832 | -97.98815 | 17104 ft | 403 kts | 85° |
| 2026-04-26 18:56 | 32.24108 | -97.95560 | 16633 ft | 403 kts | 84° |
| 2026-04-26 18:56 | 32.24386 | -97.92280 | 16170 ft | 399 kts | 84° |
| 2026-04-26 18:56 | 32.24660 | -97.89035 | 15704 ft | 394 kts | 84° |
| 2026-04-26 18:57 | 32.24931 | -97.85821 | 15249 ft | 390 kts | 84° |
| 2026-04-26 18:57 | 32.25108 | -97.83713 | 14959 ft | 387 kts | 84° |
| 2026-04-26 18:57 | 32.25453 | -97.79518 | 14480 ft | 381 kts | 84° |
| 2026-04-26 18:57 | 32.25703 | -97.76439 | 14144 ft | 380 kts | 84° |
| 2026-04-26 18:58 | 32.25958 | -97.73288 | 13802 ft | 380 kts | 84° |
| 2026-04-26 18:58 | 32.26206 | -97.70214 | 13418 ft | 381 kts | 84° |
| 2026-04-26 18:58 | 32.26457 | -97.67103 | 13049 ft | 380 kts | 84° |
| 2026-04-26 18:58 | 32.26707 | -97.64002 | 12692 ft | 376 kts | 85° |
| 2026-04-26 18:59 | 32.26950 | -97.60979 | 12328 ft | 363 kts | 85° |
| 2026-04-26 18:59 | 32.27184 | -97.58057 | 12006 ft | 351 kts | 85° |
| 2026-04-26 18:59 | 32.27410 | -97.55222 | 11684 ft | 340 kts | 85° |
| 2026-04-26 18:59 | 32.27628 | -97.52483 | 11382 ft | 330 kts | 85° |
| 2026-04-26 19:00 | 32.27842 | -97.49814 | 11095 ft | 325 kts | 85° |
| 2026-04-26 19:00 | 32.28397 | -97.47240 | 10857 ft | 324 kts | 65° |
| 2026-04-26 19:00 | 32.29390 | -97.44870 | 10692 ft | 320 kts | 63° |
| 2026-04-26 19:00 | 32.30396 | -97.42531 | 10499 ft | 319 kts | 63° |
| 2026-04-26 19:01 | 32.31392 | -97.40197 | 10323 ft | 318 kts | 63° |
| 2026-04-26 19:01 | 32.32380 | -97.37855 | 10132 ft | 318 kts | 64° |
| 2026-04-26 19:01 | 32.33356 | -97.35519 | 9939 ft | 315 kts | 64° |
| 2026-04-26 19:01 | 32.34301 | -97.33245 | 9747 ft | 310 kts | 65° |
| 2026-04-26 19:02 | 32.35243 | -97.30972 | 9524 ft | 305 kts | 65° |
| 2026-04-26 19:02 | 32.36169 | -97.28733 | 9342 ft | 300 kts | 65° |
| 2026-04-26 19:02 | 32.37081 | -97.26525 | 9163 ft | 298 kts | 64° |
| 2026-04-26 19:02 | 32.37695 | -97.25036 | 9067 ft | 298 kts | 65° |
| 2026-04-26 19:03 | 32.38901 | -97.22100 | 8997 ft | 304 kts | 65° |
| 2026-04-26 19:03 | 32.39819 | -97.19847 | 9001 ft | 303 kts | 65° |
| 2026-04-26 19:03 | 32.40727 | -97.17616 | 8995 ft | 299 kts | 65° |
| 2026-04-26 19:03 | 32.41628 | -97.15400 | 8998 ft | 299 kts | 65° |
| 2026-04-26 19:04 | 32.42533 | -97.13176 | 9028 ft | 302 kts | 65° |
| 2026-04-26 19:04 | 32.43452 | -97.10917 | 9025 ft | 307 kts | 65° |
| 2026-04-26 19:04 | 32.44378 | -97.08637 | 9019 ft | 307 kts | 65° |
| 2026-04-26 19:04 | 32.45300 | -97.06366 | 9001 ft | 306 kts | 65° |
| 2026-04-26 19:05 | 32.47118 | -97.01785 | 8340 ft | 304 kts | 66° |
| 2026-04-26 19:05 | 32.48001 | -96.99542 | 8013 ft | 297 kts | 66° |
| 2026-04-26 19:05 | 32.48867 | -96.97345 | 7731 ft | 294 kts | 66° |
| 2026-04-26 19:06 | 32.49734 | -96.95146 | 7448 ft | 293 kts | 66° |
| 2026-04-26 19:06 | 32.50586 | -96.92986 | 7155 ft | 293 kts | 66° |
| 2026-04-26 19:06 | 32.51458 | -96.90776 | 6850 ft | 289 kts | 66° |
| 2026-04-26 19:06 | 32.52289 | -96.88678 | 6558 ft | 282 kts | 66° |
| 2026-04-26 19:07 | 32.53161 | -96.86562 | 6276 ft | 282 kts | 65° |
| 2026-04-26 19:07 | 32.54018 | -96.84509 | 5967 ft | 279 kts | 65° |
| 2026-04-26 19:07 | 32.54874 | -96.82455 | 5669 ft | 277 kts | 66° |
| 2026-04-26 19:07 | 32.55719 | -96.80419 | 5393 ft | 273 kts | 66° |
| 2026-04-26 19:08 | 32.56556 | -96.78400 | 5103 ft | 271 kts | 67° |
| 2026-04-26 19:08 | 32.57505 | -96.76471 | 5019 ft | 271 kts | 56° |
| 2026-04-26 19:08 | 32.58656 | -96.74704 | 5003 ft | 269 kts | 53° |
| 2026-04-26 19:08 | 32.59826 | -96.72979 | 4996 ft | 267 kts | 53° |
| 2026-04-26 19:09 | 32.60980 | -96.71267 | 4999 ft | 265 kts | 53° |
| 2026-04-26 19:09 | 32.62120 | -96.69551 | 4999 ft | 265 kts | 54° |
| 2026-04-26 19:09 | 32.63238 | -96.67849 | 5005 ft | 264 kts | 54° |
| 2026-04-26 19:09 | 32.64363 | -96.66122 | 4988 ft | 264 kts | 54° |
| 2026-04-26 19:10 | 32.65486 | -96.64395 | 5006 ft | 264 kts | 54° |
| 2026-04-26 19:10 | 32.66606 | -96.62668 | 4997 ft | 265 kts | 55° |
| 2026-04-26 19:10 | 32.67818 | -96.61009 | 4985 ft | 268 kts | 39° |
| 2026-04-26 19:10 | 32.69522 | -96.60154 | 5000 ft | 269 kts | 8° |
| 2026-04-26 19:11 | 32.71390 | -96.59979 | 5007 ft | 270 kts | 2° |
| 2026-04-26 19:11 | 32.73261 | -96.60094 | 4978 ft | 269 kts | 340° |
| 2026-04-26 19:11 | 32.74865 | -96.61134 | 4989 ft | 261 kts | 317° |
| 2026-04-26 19:11 | 32.76208 | -96.62571 | 4992 ft | 259 kts | 314° |
| 2026-04-26 19:12 | 32.77528 | -96.64022 | 4995 ft | 259 kts | 315° |
| 2026-04-26 19:12 | 32.78863 | -96.65476 | 4867 ft | 262 kts | 314° |
| 2026-04-26 19:12 | 32.80218 | -96.66941 | 4621 ft | 264 kts | 314° |
| 2026-04-26 19:12 | 32.81582 | -96.68411 | 4355 ft | 266 kts | 315° |
| 2026-04-26 19:13 | 32.82960 | -96.69893 | 4198 ft | 265 kts | 315° |
| 2026-04-26 19:13 | 32.84289 | -96.71319 | 4120 ft | 255 kts | 314° |
| 2026-04-26 19:13 | 32.85580 | -96.72704 | 4052 ft | 245 kts | 314° |
| 2026-04-26 19:13 | 32.86820 | -96.74036 | 4020 ft | 236 kts | 315° |
| 2026-04-26 19:14 | 32.88028 | -96.75336 | 3981 ft | 235 kts | 315° |
| 2026-04-26 19:14 | 32.89235 | -96.76687 | 3858 ft | 240 kts | 313° |
| 2026-04-26 19:14 | 32.90431 | -96.78091 | 3672 ft | 242 kts | 312° |
| 2026-04-26 19:14 | 32.91219 | -96.79019 | 3523 ft | 239 kts | 312° |
| 2026-04-26 19:15 | 32.92746 | -96.80878 | 3265 ft | 229 kts | 304° |
| 2026-04-26 19:15 | 32.93513 | -96.82462 | 3106 ft | 214 kts | 283° |
| 2026-04-26 19:15 | 32.93786 | -96.84157 | 2809 ft | 204 kts | 265° |
| 2026-04-26 19:15 | 32.93630 | -96.85785 | 2577 ft | 194 kts | 249° |
| 2026-04-26 19:16 | 32.93138 | -96.87233 | 2303 ft | 188 kts | 236° |
| 2026-04-26 19:16 | 32.92391 | -96.88471 | 2034 ft | 181 kts | 222° |
| 2026-04-26 19:16 | 32.91418 | -96.89295 | 1821 ft | 165 kts | 199° |
| 2026-04-26 19:16 | 32.90366 | -96.89544 | 1691 ft | 144 kts | 180° |
| 2026-04-26 19:17 | 32.89391 | -96.89418 | 1660 ft | 142 kts | 162° |
| 2026-04-26 19:17 | 32.88547 | -96.88836 | 1537 ft | 140 kts | 143° |
| 2026-04-26 19:17 | 32.87818 | -96.88031 | 1096 ft | 141 kts | 139° |
| 2026-04-26 19:17 | 32.87120 | -96.87242 | 898 ft | 134 kts | 139° |
| 2026-04-26 19:18 | 32.86430 | -96.86474 | 685 ft | 139 kts | 137° |
| 2026-04-26 19:18 | 32.85735 | -96.85681 | 539 ft | 136 kts | 139° |
| 2026-04-26 19:18 | 32.85074 | -96.84925 | 477 ft | 121 kts | 136° |
| 2026-04-26 19:18 | 32.84633 | -96.84412 | 481 ft | 50 kts | 135° |
| 2026-04-26 19:19 | 32.84496 | -96.84257 | 480 ft | 13 kts | 155° |
| 2026-04-26 19:19 | 32.84416 | -96.84306 | 480 ft | 10 kts | 247° |
| 2026-04-26 19:19 | 32.84444 | -96.84372 | 481 ft | 9 kts | 317° |
| 2026-04-26 19:19 | 32.84456 | -96.84387 | 474 ft | 1 kts | 311° |
| 2026-04-26 19:20 | 32.84477 | -96.84415 | 477 ft | 9 kts | 314° |
| 2026-04-26 19:20 | 32.84513 | -96.84460 | 481 ft | 14 kts | 313° |
| 2026-04-26 19:20 | 32.84631 | -96.84594 | 481 ft | 18 kts | 317° |
| 2026-04-26 19:20 | 32.84702 | -96.84674 | 481 ft | 12 kts | 316° |
| 2026-04-26 19:21 | 32.84745 | -96.84723 | 481 ft | 2 kts | 315° |
| 2026-04-26 19:21 | 32.84750 | -96.84730 | 478 ft | 0 kts | 315° |
| 2026-04-26 19:22 | 32.84751 | -96.84730 | 478 ft | 1 kts | 315° |
| 2026-04-26 19:23 | 32.84769 | -96.84752 | 481 ft | 7 kts | 314° |
| 2026-04-26 19:23 | 32.84809 | -96.84799 | 481 ft | 10 kts | 316° |
| 2026-04-26 19:23 | 32.84889 | -96.84891 | 481 ft | 20 kts | 316° |
| 2026-04-26 19:23 | 32.84987 | -96.85004 | 481 ft | 18 kts | 315° |
| 2026-04-26 19:24 | 32.85036 | -96.85082 | 473 ft | 8 kts | 266° |
| 2026-04-26 19:24 | 32.85006 | -96.85132 | 481 ft | 7 kts | 229° |
| 2026-04-26 19:24 | 32.84894 | -96.85268 | 475 ft | 17 kts | 223° |
| 2026-04-26 19:25 | 32.84819 | -96.85308 | 477 ft | 11 kts | 193° |
| 2026-04-26 19:25 | 32.84794 | -96.85314 | 478 ft | 11 kts | 189° |
| 2026-04-26 19:25 | 32.84682 | -96.85279 | 481 ft | 10 kts | 134° |
| 2026-04-26 19:25 | 32.84642 | -96.85233 | 481 ft | 6 kts | 136° |
| 2026-04-26 19:26 | 32.84640 | -96.85230 | 481 ft | 0 kts | 135° |